createdAt,value
2018-06-19T00:01:58.949Z,14.77
2018-06-19T00:04:26.079Z,16.20
2018-06-19T00:06:53.369Z,17.73
2018-06-19T00:09:20.323Z,14.97
2018-06-19T00:11:47.358Z,14.73
2018-06-19T00:14:14.270Z,14.80
2018-06-19T00:16:41.314Z,14.67
2018-06-19T00:19:08.607Z,16.33
2018-06-19T00:21:39.288Z,17.17
2018-06-19T00:24:06.215Z,16.57
2018-06-19T00:26:33.109Z,14.53
2018-06-19T00:29:00.302Z,21.37
2018-06-19T00:31:27.211Z,14.47
2018-06-19T00:33:54.111Z,17.10
2018-06-19T00:36:20.998Z,22.40
2018-06-19T00:38:48.059Z,16.40
2018-06-19T00:41:14.991Z,17.73
2018-06-19T00:43:41.897Z,16.00
2018-06-19T00:46:08.871Z,15.50
2018-06-19T00:48:35.851Z,19.55
2018-06-19T00:51:03.019Z,16.80
2018-06-19T00:53:29.914Z,18.20
2018-06-19T00:56:08.399Z,17.60
2018-06-19T00:58:35.335Z,17.90
2018-06-19T01:01:02.218Z,22.30
2018-06-19T01:03:29.219Z,21.57
2018-06-19T01:05:56.123Z,19.27
2018-06-19T01:08:23.075Z,17.93
2018-06-19T01:10:49.959Z,17.33
2018-06-19T01:13:16.868Z,21.57
2018-06-19T01:15:43.788Z,24.93
2018-06-19T01:18:10.690Z,17.07
2018-06-19T01:20:37.631Z,18.10
2018-06-19T01:23:04.651Z,19.23
2018-06-19T01:25:31.603Z,20.40
2018-06-19T01:27:58.511Z,22.00
2018-06-19T01:33:28.832Z,20.37
2018-06-19T01:35:55.794Z,18.27
2018-06-19T01:38:22.707Z,21.93
2018-06-19T01:40:50.354Z,20.40
2018-06-19T01:43:17.295Z,21.07
2018-06-19T01:45:44.227Z,19.17
2018-06-19T01:48:11.308Z,17.77
2018-06-19T01:50:38.338Z,21.13
2018-06-19T01:53:05.243Z,17.60
2018-06-19T01:55:32.194Z,18.00
2018-06-19T01:57:59.255Z,20.83
2018-06-19T02:00:26.202Z,20.97
2018-06-19T02:02:53.116Z,22.67
2018-06-19T02:05:20.120Z,21.07
2018-06-19T02:07:47.189Z,23.50
2018-06-19T02:10:14.135Z,24.80
2018-06-19T02:12:41.079Z,21.63
2018-06-19T02:15:08.044Z,21.93
2018-06-19T02:17:35.015Z,25.60
2018-06-19T02:20:02.011Z,24.57
2018-06-19T02:22:28.911Z,20.03
2018-06-19T02:24:55.863Z,24.00
2018-06-19T02:27:22.802Z,21.67
2018-06-19T02:29:49.710Z,29.80
2018-06-19T02:32:16.743Z,22.37
2018-06-19T02:34:43.646Z,25.50
2018-06-19T02:37:10.607Z,19.80
2018-06-19T02:39:37.554Z,20.90
2018-06-19T02:42:04.619Z,18.57
2018-06-19T02:44:31.531Z,19.10
2018-06-19T02:46:58.454Z,22.17
2018-06-19T02:49:25.371Z,22.13
2018-06-19T02:51:52.305Z,24.17
2018-06-19T02:54:19.387Z,21.47
2018-06-19T02:56:46.335Z,19.67
2018-06-19T02:59:13.303Z,20.77
2018-06-19T03:01:40.222Z,24.57
2018-06-19T03:04:07.131Z,20.40
2018-06-19T03:06:34.080Z,23.00
2018-06-19T03:09:00.982Z,24.53
2018-06-19T03:11:28.147Z,19.47
2018-06-19T03:13:55.107Z,21.37
2018-06-19T03:16:22.398Z,24.77
2018-06-19T03:18:49.339Z,22.60
2018-06-19T03:21:16.347Z,20.30
2018-06-19T03:23:43.254Z,22.10
2018-06-19T03:26:10.204Z,21.17
2018-06-19T03:28:37.151Z,20.87
2018-06-19T03:31:04.096Z,19.93
2018-06-19T03:33:31.015Z,19.97
2018-06-19T03:35:57.953Z,21.50
2018-06-19T03:38:24.863Z,18.13
2018-06-19T03:40:52.371Z,19.27
2018-06-19T03:43:19.295Z,16.43
2018-06-19T03:45:46.195Z,20.37
2018-06-19T03:48:13.152Z,18.13
2018-06-19T03:50:40.131Z,20.40
2018-06-19T03:53:07.098Z,21.57
2018-06-19T03:55:34.063Z,20.13
2018-06-19T03:58:01.115Z,16.10
2018-06-19T04:00:28.106Z,18.87
2018-06-19T04:02:55.027Z,20.60
2018-06-19T04:05:21.958Z,21.50
2018-06-19T04:07:48.897Z,21.90
2018-06-19T04:10:15.810Z,19.40
2018-06-19T04:12:43.015Z,20.87
2018-06-19T04:15:09.923Z,20.87
2018-06-19T04:17:36.852Z,22.63
2018-06-19T04:20:03.962Z,24.07
2018-06-19T04:22:30.927Z,23.13
2018-06-19T04:24:58.453Z,19.47
2018-06-19T04:27:25.512Z,21.50
2018-06-19T04:29:52.735Z,20.20
2018-06-19T04:32:19.702Z,19.40
2018-06-19T04:34:47.402Z,17.33
2018-06-19T04:37:14.539Z,18.37
2018-06-19T04:39:41.450Z,23.30
2018-06-19T04:42:08.384Z,28.80
2018-06-19T04:44:35.299Z,18.90
2018-06-19T04:47:02.398Z,17.67
2018-06-19T04:49:29.355Z,16.77
2018-06-19T04:51:56.311Z,19.83
2018-06-19T04:54:23.350Z,19.90
2018-06-19T04:56:50.346Z,18.80
2018-06-19T04:59:17.259Z,20.50
2018-06-19T05:01:44.163Z,19.00
2018-06-19T05:04:11.092Z,18.23
2018-06-19T05:06:38.234Z,17.07
2018-06-19T05:09:08.006Z,19.93
2018-06-19T05:11:34.911Z,18.33
2018-06-19T05:14:02.115Z,17.80
2018-06-19T05:16:29.455Z,22.03
2018-06-19T05:18:56.372Z,19.20
2018-06-19T05:21:24.043Z,17.80
2018-06-19T05:23:50.958Z,17.70
2018-06-19T05:26:17.884Z,16.80
2018-06-19T05:28:44.874Z,16.03
2018-06-19T05:31:11.923Z,16.70
2018-06-19T05:33:38.853Z,17.07
2018-06-19T05:36:05.940Z,21.00
2018-06-19T05:38:32.871Z,17.23
2018-06-19T05:40:59.910Z,15.50
2018-06-19T05:43:26.887Z,17.07
2018-06-19T05:45:53.926Z,17.27
2018-06-19T05:48:20.919Z,24.00
2018-06-19T05:50:47.827Z,18.23
2018-06-19T05:53:14.770Z,16.50
2018-06-19T05:55:41.691Z,20.30
2018-06-19T05:58:08.628Z,14.47
2018-06-19T06:00:35.535Z,16.10
2018-06-19T06:03:02.492Z,15.83
2018-06-19T06:05:29.403Z,15.60
2018-06-19T06:07:56.347Z,16.43
2018-06-19T06:10:23.290Z,16.40
2018-06-19T06:12:50.218Z,14.90
2018-06-19T06:15:17.134Z,13.43
2018-06-19T06:17:44.279Z,15.80
2018-06-19T06:20:11.210Z,28.73
2018-06-19T06:22:38.161Z,15.37
2018-06-19T06:25:05.086Z,16.77
2018-06-19T06:27:32.016Z,17.87
2018-06-19T06:29:58.935Z,15.17
2018-06-19T06:32:25.895Z,14.33
2018-06-19T06:34:52.899Z,14.77
2018-06-19T06:37:19.887Z,14.00
2018-06-19T06:39:46.823Z,16.93
2018-06-19T06:42:13.735Z,15.03
2018-06-19T06:44:40.732Z,12.43
2018-06-19T06:47:08.039Z,15.87
2018-06-19T06:49:34.986Z,14.57
2018-06-19T06:52:01.891Z,13.47
2018-06-19T06:54:28.826Z,17.47
2018-06-19T06:56:58.266Z,13.13
2018-06-19T06:59:25.358Z,11.70
2018-06-19T07:01:52.275Z,11.97
2018-06-19T07:04:19.191Z,13.67
2018-06-19T07:06:46.188Z,12.17
2018-06-19T07:09:13.111Z,12.67
2018-06-19T07:11:40.059Z,14.30
2018-06-19T07:14:07.315Z,14.43
2018-06-19T07:16:34.247Z,10.10
2018-06-19T07:19:01.270Z,12.23
2018-06-19T07:21:28.227Z,11.90
2018-06-19T07:23:55.310Z,20.77
2018-06-19T07:26:22.235Z,11.90
2018-06-19T07:28:49.207Z,10.27
2018-06-19T07:31:16.187Z,12.03
2018-06-19T07:33:43.112Z,12.60
2018-06-19T07:36:10.011Z,13.40
2018-06-19T07:38:36.980Z,11.93
2018-06-19T07:41:04.011Z,9.50
2018-06-19T07:43:30.926Z,10.93
2018-06-19T07:45:57.823Z,11.20
2018-06-19T07:48:24.755Z,11.13
2018-06-19T07:50:51.675Z,15.00
2018-06-19T07:53:18.648Z,9.37
2018-06-19T07:55:45.523Z,11.00
2018-06-19T07:58:12.623Z,9.97
2018-06-19T08:00:39.546Z,11.23
2018-06-19T08:03:06.451Z,10.83
2018-06-19T08:05:33.480Z,8.10
2018-06-19T08:08:00.375Z,11.93
2018-06-19T08:10:27.451Z,14.87
2018-06-19T08:12:54.350Z,11.53
2018-06-19T08:15:21.284Z,11.40
2018-06-19T08:17:48.529Z,13.60
2018-06-19T08:20:15.491Z,14.80
2018-06-19T08:22:42.472Z,15.10
2018-06-19T08:25:09.359Z,12.43
2018-06-19T08:27:36.260Z,11.20
2018-06-19T08:30:03.355Z,11.33
2018-06-19T08:32:30.258Z,11.00
2018-06-19T08:34:57.199Z,11.33
2018-06-19T08:37:24.767Z,11.40
2018-06-19T08:39:51.750Z,10.47
2018-06-19T08:42:18.655Z,14.17
2018-06-19T08:44:45.623Z,14.20
2018-06-19T08:47:12.535Z,10.90
2018-06-19T08:49:39.515Z,11.47
2018-06-19T08:52:06.507Z,11.10
2018-06-19T08:54:33.444Z,17.50
2018-06-19T08:57:00.355Z,12.70
2018-06-19T08:59:27.274Z,15.67
2018-06-19T09:01:54.255Z,11.23
2018-06-19T09:04:21.277Z,10.83
2018-06-19T09:06:48.223Z,11.63
2018-06-19T09:09:15.124Z,10.87
2018-06-19T09:11:42.082Z,10.97
2018-06-19T09:14:09.003Z,15.00
2018-06-19T09:16:36.173Z,12.23
2018-06-19T09:19:03.076Z,15.87
2018-06-19T09:21:30.019Z,16.60
2018-06-19T09:23:57.344Z,9.40
2018-06-19T09:26:24.425Z,14.70
2018-06-19T09:28:51.560Z,10.43
2018-06-19T09:31:18.519Z,12.40
2018-06-19T09:33:45.431Z,10.50
2018-06-19T09:36:12.475Z,13.33
2018-06-19T09:38:39.410Z,11.07
2018-06-19T09:41:06.948Z,12.83
2018-06-19T09:43:33.979Z,14.30
2018-06-19T09:46:01.064Z,9.93
2018-06-19T09:48:28.010Z,11.90
2018-06-19T09:50:55.044Z,13.17
2018-06-19T09:53:21.971Z,10.53
2018-06-19T09:55:49.439Z,10.07
2018-06-19T09:58:16.744Z,13.20
2018-06-19T10:00:43.807Z,11.20
2018-06-19T10:03:10.900Z,14.33
2018-06-19T10:05:37.903Z,13.43
2018-06-19T10:08:04.784Z,12.73
2018-06-19T10:10:31.847Z,15.83
2018-06-19T10:12:58.815Z,15.40
2018-06-19T10:15:25.892Z,8.60
2018-06-19T10:17:53.239Z,12.93
2018-06-19T10:20:20.647Z,11.60
2018-06-19T10:22:47.731Z,9.90
2018-06-19T10:25:14.767Z,8.50
2018-06-19T10:27:42.043Z,9.27
2018-06-19T10:30:09.186Z,10.40
2018-06-19T10:32:36.163Z,7.90
2018-06-19T10:35:03.226Z,11.43
2018-06-19T10:37:30.455Z,10.73
2018-06-19T10:39:57.387Z,14.47
2018-06-19T10:42:24.328Z,10.97
2018-06-19T10:44:51.409Z,10.90
2018-06-19T10:47:18.429Z,13.47
2018-06-19T10:49:46.022Z,10.20
2018-06-19T10:52:12.951Z,8.00
2018-06-19T10:54:39.851Z,13.87
2018-06-19T10:57:06.979Z,13.97
2018-06-19T10:59:33.894Z,13.13
2018-06-19T11:02:00.919Z,9.37
2018-06-19T11:04:28.042Z,12.67
2018-06-19T11:06:55.103Z,23.93
2018-06-19T11:09:22.039Z,13.57
2018-06-19T11:11:48.995Z,9.23
2018-06-19T11:14:15.948Z,9.70
2018-06-19T11:16:42.894Z,13.03
2018-06-19T11:19:09.912Z,9.80
2018-06-19T11:21:37.223Z,10.60
2018-06-19T11:24:04.311Z,10.97
2018-06-19T11:26:31.506Z,10.80
2018-06-19T11:28:58.444Z,11.70
2018-06-19T11:31:25.597Z,14.83
2018-06-19T11:33:52.575Z,13.10
2018-06-19T11:36:19.576Z,12.83
2018-06-19T11:38:46.487Z,12.33
2018-06-19T11:41:13.419Z,12.07
2018-06-19T11:43:40.318Z,11.50
2018-06-19T11:46:07.231Z,14.10
2018-06-19T11:48:34.166Z,16.37
2018-06-19T11:51:01.291Z,13.77
2018-06-19T11:53:28.287Z,13.03
2018-06-19T11:55:55.432Z,14.03
2018-06-19T11:58:22.383Z,15.50
2018-06-19T12:00:49.631Z,16.47
2018-06-19T12:03:16.531Z,12.87
2018-06-19T12:05:43.488Z,20.17
2018-06-19T12:08:10.463Z,12.77
2018-06-19T12:10:37.370Z,14.37
2018-06-19T12:13:04.408Z,14.80
2018-06-19T12:15:31.344Z,17.10
2018-06-19T12:17:58.587Z,14.80
2018-06-19T12:20:25.587Z,11.93
2018-06-19T12:22:52.515Z,12.00
2018-06-19T12:25:19.476Z,10.07
2018-06-19T12:27:46.418Z,9.87
2018-06-19T12:30:13.451Z,9.73
2018-06-19T12:32:40.523Z,9.73
2018-06-19T12:35:07.572Z,14.40
2018-06-19T12:37:34.475Z,10.27
2018-06-19T12:40:01.387Z,14.07
2018-06-19T12:42:28.327Z,14.63
2018-06-19T12:44:55.415Z,13.37
2018-06-19T12:47:22.340Z,11.57
2018-06-19T12:50:29.386Z,11.23
2018-06-19T12:53:07.924Z,12.40
2018-06-19T12:56:43.482Z,15.30
2018-06-19T12:59:10.420Z,14.87
2018-06-19T13:01:37.347Z,13.93
2018-06-19T13:04:15.733Z,11.80
2018-06-19T13:06:42.643Z,15.77
2018-06-19T13:09:09.583Z,12.43
2018-06-19T13:11:36.659Z,15.43
2018-06-19T13:14:15.046Z,12.00
2018-06-19T13:16:53.663Z,13.20
2018-06-19T13:19:32.143Z,10.77
2018-06-19T13:21:59.059Z,11.70
2018-06-19T13:24:25.988Z,11.60
2018-06-19T13:26:52.964Z,12.60
2018-06-19T13:29:43.708Z,11.67
2018-06-19T13:32:10.684Z,13.13
2018-06-19T13:34:37.898Z,13.20
2018-06-19T13:37:05.365Z,10.53
2018-06-19T13:39:32.843Z,10.87
2018-06-19T13:42:11.824Z,11.37
2018-06-19T13:44:47.495Z,10.33
2018-06-19T13:47:14.435Z,13.10
2018-06-19T13:49:41.413Z,11.33
2018-06-19T13:52:08.295Z,11.50
2018-06-19T13:54:35.270Z,10.80
2018-06-19T13:57:24.347Z,9.33
2018-06-19T13:59:51.403Z,11.60
2018-06-19T14:02:18.626Z,9.63
2018-06-19T14:04:45.698Z,9.23
2018-06-19T14:07:12.723Z,8.97
2018-06-19T14:09:58.003Z,5.70
2018-06-19T14:12:30.247Z,9.30
2018-06-19T14:14:57.203Z,8.50
2018-06-19T14:17:26.161Z,6.23
2018-06-19T14:19:54.189Z,6.03
2018-06-19T14:22:21.116Z,5.20
2018-06-19T14:24:48.188Z,3.80
2018-06-19T14:27:15.104Z,5.80
2018-06-19T14:29:42.091Z,6.27
2018-06-19T14:32:09.045Z,7.30
2018-06-19T14:34:36.004Z,6.37
2018-06-19T14:37:03.321Z,4.80
2018-06-19T14:39:30.471Z,5.60
2018-06-19T14:41:57.391Z,7.47
2018-06-19T14:44:25.303Z,7.67
2018-06-19T14:46:52.458Z,6.87
2018-06-19T14:49:19.407Z,5.30
2018-06-19T14:51:46.335Z,4.57
2018-06-19T14:54:13.422Z,5.47
2018-06-19T14:56:41.059Z,6.60
2018-06-19T14:59:07.988Z,5.50
2018-06-19T15:01:34.891Z,8.50
2018-06-19T15:04:01.916Z,6.10
2018-06-19T15:06:29.099Z,4.27
2018-06-19T15:08:56.014Z,4.03
2018-06-19T15:11:23.212Z,4.33
2018-06-19T15:13:50.735Z,3.57
2018-06-19T15:16:17.674Z,4.03
2018-06-19T15:18:44.619Z,3.97
2018-06-19T15:21:11.588Z,2.70
2018-06-19T15:23:38.566Z,3.20
2018-06-19T15:26:05.782Z,4.03
2018-06-19T15:28:32.697Z,5.60
2018-06-19T15:30:59.700Z,3.00
2018-06-19T15:33:26.727Z,4.60
2018-06-19T15:35:53.623Z,3.33
2018-06-19T15:38:20.663Z,4.37
2018-06-19T15:40:47.588Z,3.93
2018-06-19T15:43:14.507Z,4.90
2018-06-19T15:45:41.427Z,3.77
2018-06-19T15:48:08.427Z,2.60
2018-06-19T15:50:35.335Z,4.47
2018-06-19T15:53:02.567Z,4.03
2018-06-19T15:55:29.502Z,3.13
2018-06-19T15:57:56.403Z,5.00
2018-06-19T16:00:23.354Z,4.00
2018-06-19T16:02:50.274Z,2.43
2018-06-19T16:05:17.207Z,8.00
2018-06-19T16:07:49.932Z,4.67
2018-06-19T16:10:16.851Z,3.10
2018-06-19T16:12:43.806Z,6.37
2018-06-19T16:15:10.684Z,3.77
2018-06-19T16:17:37.591Z,3.90
2018-06-19T16:20:04.571Z,3.73
2018-06-19T16:22:31.479Z,4.70
2018-06-19T16:24:58.407Z,2.30
2018-06-19T16:27:25.318Z,3.30
2018-06-19T16:29:52.263Z,2.67
2018-06-19T16:32:19.303Z,2.20
2018-06-19T16:34:46.204Z,2.90
2018-06-19T16:37:13.342Z,4.03
2018-06-19T16:39:40.890Z,3.93
2018-06-19T16:42:07.811Z,4.63
2018-06-19T16:44:34.983Z,2.90
2018-06-19T16:47:01.953Z,5.00
2018-06-19T16:49:28.867Z,3.17
2018-06-19T16:51:55.955Z,2.87
2018-06-19T16:54:23.740Z,4.80
2018-06-19T16:56:50.657Z,2.13
2018-06-19T16:59:17.626Z,3.30
2018-06-19T17:01:44.654Z,2.90
2018-06-19T17:04:11.615Z,3.57
2018-06-19T17:06:38.531Z,5.63
2018-06-19T17:09:06.355Z,4.20
2018-06-19T17:11:33.327Z,4.57
2018-06-19T17:14:00.254Z,2.40
2018-06-19T17:16:27.223Z,3.23
2018-06-19T17:18:54.212Z,2.70
2018-06-19T17:21:21.197Z,6.13
2018-06-19T17:23:48.059Z,2.40
2018-06-19T17:26:14.970Z,1.67
2018-06-19T17:28:41.878Z,3.13
2018-06-19T17:31:08.799Z,2.97
2018-06-19T17:33:35.714Z,2.70
2018-06-19T17:36:02.657Z,4.57
2018-06-19T17:38:29.575Z,3.17
2018-06-19T17:40:56.530Z,3.10
2018-06-19T17:43:23.411Z,2.50
2018-06-19T17:45:50.332Z,3.83
2018-06-19T17:48:17.235Z,3.13
2018-06-19T17:50:44.158Z,4.60
2018-06-19T17:53:11.071Z,4.37
2018-06-19T17:55:37.987Z,3.90
2018-06-19T17:58:04.895Z,2.30
2018-06-19T18:00:31.811Z,1.83
2018-06-19T18:02:58.738Z,2.87
2018-06-19T18:05:25.703Z,3.13
2018-06-19T18:07:52.600Z,3.07
2018-06-19T18:10:19.843Z,3.40
2018-06-19T18:12:46.748Z,4.23
2018-06-19T18:15:13.678Z,2.77
2018-06-19T18:17:40.615Z,6.73
2018-06-19T18:20:07.547Z,3.13
2018-06-19T18:22:34.455Z,4.80
2018-06-19T18:25:01.519Z,4.87
2018-06-19T18:27:28.418Z,3.30
2018-06-19T18:29:55.330Z,2.00
2018-06-19T18:32:22.266Z,2.83
2018-06-19T18:34:49.179Z,3.20
2018-06-19T18:37:16.111Z,2.90
2018-06-19T18:39:43.035Z,3.10
2018-06-19T18:42:09.952Z,6.20
2018-06-19T18:44:36.864Z,3.60
2018-06-19T18:47:04.004Z,3.77
2018-06-19T18:49:30.898Z,4.67
2018-06-19T18:51:57.824Z,4.53
2018-06-19T18:54:24.971Z,2.93
2018-06-19T18:56:51.906Z,2.90
2018-06-19T18:59:18.811Z,4.00
2018-06-19T19:01:45.727Z,3.03
2018-06-19T19:04:12.631Z,3.40
2018-06-19T19:06:39.671Z,5.20
2018-06-19T19:09:08.159Z,4.63
2018-06-19T19:11:35.082Z,11.73
2018-06-19T19:14:01.987Z,2.63
2018-06-19T19:16:34.827Z,4.37
2018-06-19T19:19:03.886Z,2.97
2018-06-19T19:21:30.822Z,2.80
2018-06-19T19:23:57.715Z,4.03
2018-06-19T19:26:30.559Z,2.83
2018-06-19T19:29:03.095Z,3.40
2018-06-19T19:31:30.004Z,2.53
2018-06-19T19:33:56.902Z,4.13
2018-06-19T19:36:29.493Z,3.97
2018-06-19T19:39:02.072Z,3.57
2018-06-19T19:41:28.994Z,3.73
2018-06-19T19:43:55.917Z,7.07
2018-06-19T19:46:28.589Z,3.13
2018-06-19T19:48:57.731Z,5.00
2018-06-19T19:51:25.165Z,7.10
2018-06-19T19:53:52.108Z,4.50
2018-06-19T19:56:24.842Z,4.33
2018-06-19T19:58:51.976Z,2.47
2018-06-19T20:01:18.999Z,3.40
2018-06-19T20:03:46.275Z,7.17
2018-06-19T20:06:13.203Z,3.70
2018-06-19T20:08:40.104Z,2.80
2018-06-19T20:11:07.027Z,3.87
2018-06-19T20:13:33.947Z,3.70
2018-06-19T20:16:00.859Z,3.57
2018-06-19T20:18:27.795Z,2.47
2018-06-19T20:20:54.703Z,3.50
2018-06-19T20:23:21.630Z,3.50
2018-06-19T20:25:48.527Z,3.70
2018-06-19T20:28:15.468Z,4.30
2018-06-19T20:30:42.383Z,4.60
2018-06-19T20:33:09.327Z,8.33
2018-06-19T20:35:36.232Z,2.50
2018-06-19T20:38:03.183Z,7.13
2018-06-19T20:40:30.107Z,3.67
2018-06-19T20:42:57.171Z,2.93
2018-06-19T20:45:24.141Z,3.43
2018-06-19T20:47:51.059Z,2.73
2018-06-19T20:50:18.130Z,3.67
2018-06-19T20:52:45.272Z,2.10
2018-06-19T20:55:12.195Z,2.60
2018-06-19T20:57:39.367Z,3.67
2018-06-19T21:00:06.379Z,4.73
2018-06-19T21:02:33.312Z,3.67
2018-06-19T21:05:00.263Z,5.83
2018-06-19T21:07:27.177Z,3.77
2018-06-19T21:09:54.106Z,5.07
2018-06-19T21:12:21.055Z,3.73
2018-06-19T21:14:47.999Z,7.10
2018-06-19T21:17:14.939Z,2.50
2018-06-19T21:19:41.838Z,4.23
2018-06-19T21:22:08.795Z,5.00
2018-06-19T21:24:35.687Z,3.77
2018-06-19T21:27:02.647Z,6.30
2018-06-19T21:29:29.572Z,2.20
2018-06-19T21:31:56.561Z,2.60
2018-06-19T21:34:23.522Z,6.27
2018-06-19T21:36:50.427Z,4.10
2018-06-19T21:39:17.351Z,3.53
2018-06-19T21:41:44.314Z,7.20
2018-06-19T21:44:11.382Z,5.40
2018-06-19T21:46:38.283Z,3.87
2018-06-19T21:49:05.211Z,2.83
2018-06-19T21:51:32.118Z,4.80
2018-06-19T21:53:59.178Z,4.23
2018-06-19T21:56:26.122Z,4.70
2018-06-19T21:58:53.058Z,3.77
2018-06-19T22:01:19.958Z,5.10
2018-06-19T22:03:47.231Z,4.40
2018-06-19T22:06:14.224Z,6.07
2018-06-19T22:08:43.135Z,3.67
2018-06-19T22:11:10.087Z,3.33
2018-06-19T22:13:38.037Z,8.07
2018-06-19T22:16:05.130Z,4.90
2018-06-19T22:18:32.062Z,6.30
2018-06-19T22:20:59.043Z,3.83
2018-06-19T22:23:25.956Z,4.63
2018-06-19T22:25:52.895Z,10.13
2018-06-19T22:28:19.923Z,5.03
2018-06-19T22:30:46.910Z,6.70
2018-06-19T22:33:13.856Z,6.50
2018-06-19T22:35:40.768Z,6.77
2018-06-19T22:38:07.703Z,6.10
2018-06-19T22:40:34.734Z,4.60
2018-06-19T22:43:01.671Z,4.90
2018-06-19T22:45:28.602Z,4.20
2018-06-19T22:47:55.564Z,3.00
2018-06-19T22:50:22.475Z,4.33
2018-06-19T22:52:49.415Z,5.07
2018-06-19T22:55:16.387Z,7.13
2018-06-19T22:57:43.318Z,4.43
2018-06-19T23:00:10.651Z,7.00
2018-06-19T23:02:37.575Z,4.97
2018-06-19T23:05:04.739Z,5.50
2018-06-19T23:07:32.043Z,5.53
2018-06-19T23:09:59.139Z,2.97
2018-06-19T23:12:26.095Z,3.53
2018-06-19T23:14:53.015Z,4.30
2018-06-19T23:17:19.914Z,5.37
2018-06-19T23:19:46.900Z,4.50
2018-06-19T23:22:13.802Z,3.53
2018-06-19T23:24:40.875Z,3.77
2018-06-19T23:27:07.774Z,5.17
2018-06-19T23:29:34.708Z,3.93
2018-06-19T23:32:01.651Z,3.47
2018-06-19T23:34:28.723Z,4.83
2018-06-19T23:36:55.619Z,3.60
2018-06-19T23:39:22.535Z,9.97
2018-06-19T23:41:50.407Z,6.40
2018-06-19T23:44:17.319Z,9.87
2018-06-19T23:46:44.258Z,6.70
2018-06-19T23:49:11.270Z,3.43
2018-06-19T23:51:38.171Z,5.20
2018-06-19T23:54:05.091Z,4.30
2018-06-19T23:56:32.027Z,6.40
2018-06-19T23:58:58.955Z,4.40
